Time;durP1;ratioP1;P1;durP2;ratioP2;P2;SDS_P1;SDS_P2;PMS_P1;PMS_P2;Temp;Humidity;BMP_temperature;BMP_pressure;BME280_temperature;BME280_humidity;BME280_pressure;Samples;Min_cycle;Max_cycle;Signal;HPM_P1;HPM_P2
2021/06/18 00:00:19;;;;;;;7.70;4.20;;;;;;;23.85;54.47;101479.53;144994;571;5002;-83
2021/06/18 00:02:46;;;;;;;9.02;4.28;;;;;;;23.84;54.45;101483.06;144994;571;5002;-84
2021/06/18 00:05:13;;;;;;;12.05;4.10;;;;;;;23.80;54.23;101477.78;144994;566;5002;-85
2021/06/18 00:07:43;;;;;;;7.68;3.78;;;;;;;23.79;54.08;101484.87;144994;620;5002;-85
2021/06/18 00:10:11;;;;;;;8.05;3.50;;;;;;;23.72;54.14;101477.91;144994;577;5002;-84
2021/06/18 00:12:38;;;;;;;5.43;3.22;;;;;;;23.67;53.75;101477.06;144994;628;5002;-84
2021/06/18 00:15:07;;;;;;;5.22;3.20;;;;;;;23.62;53.86;101470.97;144994;616;5002;-84
2021/06/18 00:17:34;;;;;;;3.80;2.78;;;;;;;23.57;53.85;101478.09;144994;565;5002;-84
2021/06/18 00:20:03;;;;;;;3.97;3.08;;;;;;;23.56;53.88;101458.69;144994;588;5002;-85
2021/06/18 00:22:34;;;;;;;4.12;3.05;;;;;;;23.59;53.87;101471.00;144994;624;5002;-84
2021/06/18 00:25:05;;;;;;;4.78;3.10;;;;;;;23.62;53.53;101468.31;144994;567;5004;-86
2021/06/18 00:27:31;;;;;;;5.95;3.12;;;;;;;23.62;53.55;101458.59;144994;577;5004;-84
2021/06/18 00:29:58;;;;;;;3.95;2.80;;;;;;;23.58;53.22;101446.28;144994;595;5004;-86
2021/06/18 00:32:27;;;;;;;4.35;3.10;;;;;;;23.49;53.61;101452.56;144993;646;5004;-85
2021/06/18 00:34:54;;;;;;;4.70;2.80;;;;;;;23.48;53.05;101444.63;144994;598;5002;-86
2021/06/18 00:37:20;;;;;;;4.10;3.00;;;;;;;23.46;52.94;101446.44;144994;644;5002;-86
2021/06/18 00:39:47;;;;;;;4.60;2.85;;;;;;;23.43;52.97;101442.06;144994;570;5002;-86
2021/06/18 00:42:13;;;;;;;5.50;3.37;;;;;;;23.40;52.96;101438.56;144994;582;5002;-88
2021/06/18 00:44:40;;;;;;;5.95;2.97;;;;;;;23.31;53.14;101442.22;144994;565;5002;-84
2021/06/18 00:47:14;;;;;;;4.18;3.30;;;;;;;23.30;53.56;101441.31;144994;581;5002;-85
2021/06/18 00:49:40;;;;;;;4.85;3.40;;;;;;;23.32;53.44;101433.34;144994;609;5002;-84
2021/06/18 00:52:07;;;;;;;4.62;2.92;;;;;;;23.31;52.97;101427.19;144994;594;5002;-86
2021/06/18 00:54:36;;;;;;;4.65;3.50;;;;;;;23.29;52.88;101428.97;144994;596;5002;-87
2021/06/18 00:57:03;;;;;;;4.97;3.00;;;;;;;23.25;53.10;101429.91;144994;630;5002;-83
2021/06/18 00:59:29;;;;;;;4.80;3.03;;;;;;;23.27;52.84;101427.22;144994;625;5002;-86
2021/06/18 01:01:56;;;;;;;5.47;2.80;;;;;;;23.27;53.14;101428.09;144994;581;5002;-83
2021/06/18 01:04:25;;;;;;;7.82;2.83;;;;;;;23.26;52.75;101428.16;144994;566;5002;-84
2021/06/18 01:07:22;;;;;;;7.62;2.87;;;;;;;23.25;53.04;101423.72;144994;578;5002;-84
2021/06/18 01:10:13;;;;;;;7.50;2.75;;;;;;;23.24;52.95;101424.63;144994;589;5004;-84
2021/06/18 01:12:53;;;;;;;7.65;3.15;;;;;;;23.22;52.42;101429.06;144994;584;5005;-84
2021/06/18 01:15:27;;;;;;;4.82;3.95;;;;;;;23.19;52.58;101427.31;144994;590;5004;-84
2021/06/18 01:18:04;;;;;;;4.62;2.97;;;;;;;23.22;52.94;101431.72;144994;563;5004;-85
2021/06/18 01:21:12;;;;;;;5.32;2.78;;;;;;;23.22;52.41;101435.22;144994;592;5005;-84
2021/06/18 01:24:26;;;;;;;4.10;2.90;;;;;;;23.22;52.97;101437.00;144994;576;5004;-83
2021/06/18 01:27:53;;;;;;;7.30;2.90;;;;;;;23.19;52.42;101440.56;144994;575;5004;-85
2021/06/18 01:30:22;;;;;;;3.20;2.70;;;;;;;23.20;52.57;101437.03;144994;581;5004;-84
2021/06/18 01:33:11;;;;;;;5.15;2.40;;;;;;;23.24;53.04;101441.41;144994;649;5004;-83
2021/06/18 01:36:09;;;;;;;3.78;2.50;;;;;;;23.24;52.58;101441.41;144994;588;5003;-84
2021/06/18 01:38:45;;;;;;;3.28;2.90;;;;;;;23.34;53.03;101436.87;144994;566;5004;-83
2021/06/18 01:41:22;;;;;;;3.67;2.55;;;;;;;23.43;52.44;101434.13;144994;564;5004;-86
2021/06/18 01:43:54;;;;;;;4.40;2.90;;;;;;;23.54;52.23;101431.31;144994;562;5004;-88
2021/06/18 01:46:26;;;;;;;3.45;2.70;;;;;;;23.61;52.40;101432.12;144994;574;5004;-87
2021/06/18 01:49:08;;;;;;;4.55;2.95;;;;;;;23.61;52.22;101433.00;144994;605;5004;-86
2021/06/18 01:51:37;;;;;;;6.18;2.70;;;;;;;23.61;51.64;101426.84;144994;567;5004;-87
2021/06/18 01:54:06;;;;;;;4.25;2.65;;;;;;;23.61;51.94;101435.66;144994;638;5004;-87
2021/06/18 01:56:36;;;;;;;3.10;2.58;;;;;;;23.62;51.69;101428.56;144994;583;5004;-86
2021/06/18 01:59:05;;;;;;;5.53;3.17;;;;;;;23.60;51.75;101441.84;144994;687;5004;-86
2021/06/18 02:01:54;;;;;;;4.43;3.80;;;;;;;23.57;51.91;101439.22;144994;580;5004;-86
2021/06/18 02:04:21;;;;;;;5.35;2.85;;;;;;;23.61;51.63;101440.09;144994;609;5002;-86
2021/06/18 02:06:51;;;;;;;3.97;3.65;;;;;;;23.55;51.23;101441.03;144994;652;5002;-87
2021/06/18 02:09:19;;;;;;;4.12;2.50;;;;;;;23.30;52.02;101443.09;144994;570;5002;-84
2021/06/18 02:11:47;;;;;;;4.45;2.83;;;;;;;23.25;52.52;101440.50;144994;604;5002;-86
2021/06/18 02:14:19;;;;;;;2.62;2.42;;;;;;;23.25;52.51;101444.91;144994;583;5002;-85
2021/06/18 02:17:06;;;;;;;4.45;2.75;;;;;;;23.09;52.67;101441.56;144994;586;5002;-85
2021/06/18 02:19:39;;;;;;;7.20;4.03;;;;;;;23.13;52.94;101444.16;144994;566;5002;-87
2021/06/18 02:22:10;;;;;;;7.25;4.68;;;;;;;23.23;52.39;101444.94;144994;615;5002;-86
2021/06/18 02:24:43;;;;;;;9.20;5.35;;;;;;;23.27;53.38;101446.63;144994;569;5002;-86
2021/06/18 02:27:35;;;;;;;8.68;5.25;;;;;;;23.36;52.53;101449.19;144994;580;5002;-87
2021/06/18 02:30:17;;;;;;;7.90;5.12;;;;;;;23.43;52.47;101443.81;144994;628;5002;-85
2021/06/18 02:32:47;;;;;;;7.68;5.53;;;;;;;23.51;52.42;101442.84;144994;677;5002;-86
2021/06/18 02:35:15;;;;;;;6.28;4.70;;;;;;;23.59;52.73;101439.19;144994;575;5003;-84
2021/06/18 02:37:42;;;;;;;10.25;5.70;;;;;;;23.60;52.98;101433.03;144994;625;5002;-84
2021/06/18 02:40:10;;;;;;;13.52;6.18;;;;;;;23.26;55.07;101442.25;144994;613;5002;-86
2021/06/18 02:42:38;;;;;;;14.48;7.43;;;;;;;23.16;53.90;101437.94;144994;575;5003;-87
2021/06/18 02:45:08;;;;;;;12.63;7.60;;;;;;;23.24;53.75;101435.22;144994;574;5002;-85
2021/06/18 02:48:07;;;;;;;13.40;8.02;;;;;;;23.30;54.10;101432.50;144994;565;5002;-85
2021/06/18 02:50:45;;;;;;;13.45;7.22;;;;;;;23.34;53.99;101434.22;144994;602;5004;-88
2021/06/18 02:54:07;;;;;;;12.68;7.03;;;;;;;23.34;54.57;101429.78;144994;645;5004;-86
2021/06/18 02:56:57;;;;;;;14.55;7.60;;;;;;;23.24;53.99;101432.56;144994;567;5004;-87
2021/06/18 03:00:04;;;;;;;8.68;6.50;;;;;;;23.16;54.26;101433.53;144994;578;5004;-87
2021/06/18 03:02:36;;;;;;;9.00;6.28;;;;;;;23.16;54.57;101438.84;144994;576;5002;-86
2021/06/18 03:05:08;;;;;;;13.57;6.53;;;;;;;23.12;54.34;101428.28;144994;624;5002;-85
2021/06/18 03:07:37;;;;;;;11.88;6.10;;;;;;;23.13;54.23;101435.31;144994;569;5002;-86
2021/06/18 03:10:08;;;;;;;14.30;6.28;;;;;;;23.10;54.80;101432.75;144994;624;5002;-86
2021/06/18 03:12:42;;;;;;;12.43;5.32;;;;;;;23.04;54.74;101422.19;144993;644;5002;-87
2021/06/18 03:15:10;;;;;;;9.45;6.07;;;;;;;23.06;54.92;101418.59;144994;633;5002;-87
2021/06/18 03:18:01;;;;;;;12.85;5.65;;;;;;;23.12;54.86;101426.50;144994;575;5002;-86
2021/06/18 03:20:56;;;;;;;11.65;6.32;;;;;;;23.18;54.54;101422.94;144994;621;5002;-85
2021/06/18 03:23:32;;;;;;;14.27;7.30;;;;;;;23.24;54.65;101416.66;144994;564;5002;-85
2021/06/18 03:26:15;;;;;;;17.77;8.95;;;;;;;23.27;54.27;101422.81;144994;573;5002;-84
2021/06/18 03:28:43;;;;;;;15.93;8.30;;;;;;;23.27;54.79;101414.84;144994;580;4566;-85
2021/06/18 03:31:11;;;;;;;14.95;9.10;;;;;;;23.23;54.56;101415.81;144994;582;4572;-85
2021/06/18 03:33:39;;;;;;;15.45;9.63;;;;;;;23.17;54.90;101415.88;144994;583;4572;-85
2021/06/18 03:36:07;;;;;;;17.87;9.20;;;;;;;23.14;54.65;101416.78;144992;570;6002;-84
2021/06/18 03:38:35;;;;;;;15.32;9.15;;;;;;;23.13;55.02;101407.09;144992;581;6002;-86
2021/06/18 03:41:02;;;;;;;20.62;9.18;;;;;;;22.97;54.97;101406.34;144992;596;6002;-85
2021/06/18 03:43:38;;;;;;;18.52;7.78;;;;;;;22.74;57.70;101408.34;144992;586;6002;-87
2021/06/18 03:46:16;;;;;;;14.70;7.80;;;;;;;22.71;56.13;101408.38;144992;595;6002;-86
2021/06/18 03:48:50;;;;;;;10.75;7.05;;;;;;;22.77;57.47;101413.63;144992;563;6002;-85
2021/06/18 03:51:28;;;;;;;11.85;7.12;;;;;;;22.76;56.60;101406.56;144992;604;6002;-85
2021/06/18 03:53:57;;;;;;;10.57;6.70;;;;;;;22.76;56.67;101407.44;144992;587;6002;-86
2021/06/18 03:56:28;;;;;;;10.13;6.32;;;;;;;22.80;56.74;101403.88;144992;602;6002;-83
2021/06/18 03:59:18;;;;;;;8.70;6.65;;;;;;;22.91;56.37;101395.81;144992;632;6002;-85
2021/06/18 04:01:56;;;;;;;13.15;6.37;;;;;;;23.03;57.17;101396.59;144992;564;6002;-86
2021/06/18 04:04:50;;;;;;;9.70;6.57;;;;;;;23.20;55.62;101401.72;144992;571;6002;-85
2021/06/18 04:07:22;;;;;;;8.83;6.33;;;;;;;23.16;56.10;101395.56;144992;573;6004;-84
2021/06/18 04:10:15;;;;;;;10.60;7.15;;;;;;;23.14;56.06;101398.22;144992;599;6006;-83
2021/06/18 04:12:50;;;;;;;12.70;7.40;;;;;;;23.12;57.35;101405.31;144992;571;6004;-84
2021/06/18 04:15:26;;;;;;;14.15;6.55;;;;;;;23.10;57.35;101406.25;144992;568;6004;-86
2021/06/18 04:18:12;;;;;;;7.95;6.35;;;;;;;23.05;59.04;101406.28;144992;596;6004;-88
2021/06/18 04:20:53;;;;;;;12.02;7.47;;;;;;;23.10;56.87;101414.19;144992;507;6002;-87
2021/06/18 04:23:31;;;;;;;11.60;8.88;;;;;;;23.20;56.95;101405.25;144992;577;6002;-84
2021/06/18 04:26:02;;;;;;;12.60;9.18;;;;;;;23.29;56.75;101409.53;144992;629;6002;-86
2021/06/18 04:28:38;;;;;;;10.85;9.18;;;;;;;23.41;56.25;101408.53;144992;571;6002;-82
2021/06/18 04:31:44;;;;;;;14.68;10.57;;;;;;;23.56;56.15;101416.28;144992;612;6002;-85
2021/06/18 04:34:11;;;;;;;12.88;10.43;;;;;;;23.67;55.71;101418.78;144992;588;6005;-86
2021/06/18 04:36:41;;;;;;;12.88;10.13;;;;;;;23.78;56.18;101423.94;144992;595;6004;-86
2021/06/18 04:39:11;;;;;;;14.63;9.73;;;;;;;23.81;56.11;101427.41;144992;586;6004;-86
2021/06/18 04:41:45;;;;;;;13.60;9.38;;;;;;;23.88;56.07;101428.25;144992;588;6005;-83
2021/06/18 04:44:26;;;;;;;10.50;8.35;;;;;;;23.95;55.48;101431.69;144992;630;6004;-85
2021/06/18 04:46:53;;;;;;;12.73;9.23;;;;;;;23.99;55.84;101430.72;144992;655;6004;-87
2021/06/18 04:49:20;;;;;;;13.73;9.15;;;;;;;24.03;55.08;101433.31;144992;599;6005;-87
2021/06/18 04:51:47;;;;;;;12.77;8.68;;;;;;;23.98;55.39;101431.66;144992;573;6004;-86
2021/06/18 04:54:14;;;;;;;13.95;9.25;;;;;;;23.99;56.02;101434.28;144991;604;6000;-86
2021/06/18 04:56:41;;;;;;;24.92;16.25;;;;;;;23.90;57.00;101435.28;144992;614;6003;-86
2021/06/18 04:59:08;;;;;;;26.65;16.42;;;;;;;23.86;56.27;101441.53;144992;588;6002;-88
2021/06/18 05:01:37;;;;;;;34.38;18.77;;;;;;;23.90;56.19;101437.91;144992;587;6002;-87
2021/06/18 05:04:05;;;;;;;31.35;19.62;;;;;;;24.02;55.92;101433.34;144992;604;6002;-85
2021/06/18 05:06:32;;;;;;;26.98;17.08;;;;;;;24.08;56.27;101438.56;144992;587;6002;-85
2021/06/18 05:09:12;;;;;;;25.00;15.32;;;;;;;24.19;55.94;101447.22;144992;589;6002;-87
2021/06/18 05:11:50;;;;;;;25.15;15.20;;;;;;;24.26;56.16;101446.25;144992;570;6002;-85
2021/06/18 05:14:22;;;;;;;20.67;12.82;;;;;;;24.36;55.91;101454.06;144991;590;6002;-87
2021/06/18 05:16:49;;;;;;;15.75;10.95;;;;;;;24.39;56.30;101456.66;144992;574;6002;-85
2021/06/18 05:19:15;;;;;;;15.32;10.00;;;;;;;24.31;56.73;101451.47;144992;564;6002;-85
2021/06/18 05:21:41;;;;;;;21.15;10.15;;;;;;;24.20;56.62;101448.97;144992;581;6002;-86
2021/06/18 05:24:09;;;;;;;13.70;8.80;;;;;;;24.15;57.50;101453.50;144992;603;6002;-85
2021/06/18 05:26:36;;;;;;;19.33;9.02;;;;;;;24.17;56.21;101450.81;144992;591;6002;-87
2021/06/18 05:29:03;;;;;;;16.62;9.38;;;;;;;24.20;56.40;101454.28;144992;625;6002;-86
2021/06/18 05:31:32;;;;;;;16.73;9.55;;;;;;;24.31;55.63;101447.91;144991;577;6008;-84
2021/06/18 05:33:59;;;;;;;16.25;8.63;;;;;;;24.42;56.41;101454.81;144992;625;6002;-86
2021/06/18 05:36:26;;;;;;;12.52;8.75;;;;;;;24.56;56.32;101448.41;144992;569;6002;-87
2021/06/18 05:38:52;;;;;;;15.02;8.70;;;;;;;24.70;55.76;101450.87;144992;629;6002;-85
2021/06/18 05:41:19;;;;;;;18.23;8.73;;;;;;;24.72;55.17;101446.38;144992;583;6002;-86
2021/06/18 05:43:46;;;;;;;16.12;8.30;;;;;;;24.79;55.74;101440.94;144992;604;6002;-85
2021/06/18 05:46:12;;;;;;;16.62;7.60;;;;;;;24.80;55.60;101445.38;144992;564;6002;-88
2021/06/18 05:48:39;;;;;;;10.02;7.00;;;;;;;24.84;55.42;101442.66;144992;628;6002;-86
2021/06/18 05:51:05;;;;;;;11.40;7.25;;;;;;;24.88;55.19;101439.03;144992;585;6002;-85
2021/06/18 05:53:32;;;;;;;11.82;6.57;;;;;;;24.93;55.00;101440.72;144992;563;6002;-86
2021/06/18 05:55:59;;;;;;;10.73;6.85;;;;;;;24.96;54.78;101442.44;144992;564;6003;-87
2021/06/18 05:58:26;;;;;;;8.80;5.93;;;;;;;24.96;55.28;101443.31;144992;589;6002;-86
2021/06/18 06:00:53;;;;;;;9.80;5.97;;;;;;;24.98;55.53;101437.97;144992;587;6002;-86
2021/06/18 06:03:19;;;;;;;9.70;6.03;;;;;;;25.07;54.90;101444.88;144992;579;6002;-86
2021/06/18 06:05:47;;;;;;;12.02;5.37;;;;;;;25.15;54.84;101443.84;144992;574;6002;-86
2021/06/18 06:08:13;;;;;;;7.90;4.75;;;;;;;25.25;54.76;101443.66;144992;566;6002;-85
2021/06/18 06:10:40;;;;;;;5.70;4.15;;;;;;;25.21;54.69;101445.47;144992;655;6002;-85
2021/06/18 06:13:07;;;;;;;6.70;3.58;;;;;;;25.03;53.33;101448.50;144992;591;6002;-86
2021/06/18 06:15:33;;;;;;;3.35;2.95;;;;;;;24.96;54.64;101453.06;144992;589;6002;-85
2021/06/18 06:18:02;;;;;;;3.67;2.87;;;;;;;24.92;54.51;101452.22;144992;572;6002;-89
2021/06/18 06:20:28;;;;;;;4.00;2.78;;;;;;;24.92;55.12;101452.22;144992;661;6002;-86
2021/06/18 06:22:55;;;;;;;4.78;2.45;;;;;;;24.98;54.79;101444.16;144992;569;6002;-87
2021/06/18 06:25:21;;;;;;;3.97;2.90;;;;;;;25.02;55.05;101433.47;144991;588;6002;-87
2021/06/18 06:27:48;;;;;;;3.62;3.15;;;;;;;25.01;54.36;101451.19;144991;602;6002;-85
2021/06/18 06:30:15;;;;;;;12.90;10.02;;;;;;;24.99;54.71;101447.66;144992;574;6002;-86
2021/06/18 06:32:42;;;;;;;7.70;4.50;;;;;;;25.07;52.88;101445.75;144992;599;6002;-86
2021/06/18 06:35:09;;;;;;;4.97;3.90;;;;;;;25.06;52.67;101438.69;144992;653;6002;-85
2021/06/18 06:37:36;;;;;;;4.75;3.53;;;;;;;25.17;53.35;101444.66;144992;596;6002;-86
2021/06/18 06:40:03;;;;;;;3.45;2.80;;;;;;;25.20;53.40;101438.44;144992;582;6002;-86
2021/06/18 06:42:29;;;;;;;7.70;6.25;;;;;;;24.99;52.69;101447.66;144992;585;6002;-88
2021/06/18 06:44:56;;;;;;;4.68;3.75;;;;;;;24.98;53.89;101433.53;144992;588;6002;-87
2021/06/18 06:47:24;;;;;;;9.45;5.50;;;;;;;25.07;54.12;101436.91;144992;573;6002;-86
2021/06/18 06:49:50;;;;;;;9.00;5.90;;;;;;;25.21;54.46;101428.66;144992;597;6002;-88
2021/06/18 06:52:19;;;;;;;3.90;3.03;;;;;;;25.34;53.59;101432.84;144992;620;6002;-86
2021/06/18 06:54:45;;;;;;;3.25;2.95;;;;;;;25.43;53.84;101431.81;144992;586;6002;-84
2021/06/18 06:57:14;;;;;;;4.05;3.10;;;;;;;25.48;53.61;101425.47;144992;602;6002;-86
2021/06/18 06:59:41;;;;;;;3.55;3.08;;;;;;;25.58;53.51;101431.47;144992;585;6002;-85
2021/06/18 07:02:07;;;;;;;6.32;4.55;;;;;;;25.61;51.70;101422.56;144992;625;6002;-85
2021/06/18 07:04:37;;;;;;;3.90;3.03;;;;;;;25.67;53.22;101428.59;144992;621;6002;-84
2021/06/18 07:07:03;;;;;;;4.22;2.75;;;;;;;25.73;52.91;101419.63;144992;599;6002;-83
2021/06/18 07:09:31;;;;;;;9.00;5.78;;;;;;;25.83;53.14;101425.59;144992;578;6002;-83
2021/06/18 07:11:57;;;;;;;12.07;7.65;;;;;;;25.93;53.18;101421.84;144992;575;6002;-83
2021/06/18 07:14:24;;;;;;;4.43;3.50;;;;;;;26.04;52.80;101410.97;144992;605;6002;-80
2021/06/18 07:16:50;;;;;;;3.25;2.70;;;;;;;26.13;52.69;101416.06;144992;585;6002;-81
2021/06/18 07:19:17;;;;;;;5.22;3.30;;;;;;;26.20;51.65;101414.13;144992;604;6002;-82
2021/06/18 07:21:43;;;;;;;3.12;2.83;;;;;;;26.30;52.52;101410.34;144992;622;6002;-81
2021/06/18 07:24:10;;;;;;;3.53;3.00;;;;;;;26.33;51.24;101409.41;144992;573;6002;-84
2021/06/18 07:26:36;;;;;;;5.35;4.03;;;;;;;26.38;52.63;101403.03;144992;569;6002;-79
2021/06/18 07:29:02;;;;;;;4.85;3.67;;;;;;;26.46;51.24;101407.31;144992;575;6002;-83
2021/06/18 07:31:29;;;;;;;3.40;3.10;;;;;;;26.51;52.65;101402.72;144992;638;6002;-82
2021/06/18 07:33:56;;;;;;;2.83;2.60;;;;;;;26.60;51.11;101402.50;144992;592;6002;-83
2021/06/18 07:36:22;;;;;;;4.10;2.65;;;;;;;26.67;52.04;101405.91;144992;565;6002;-81
2021/06/18 07:38:49;;;;;;;3.70;2.85;;;;;;;26.76;52.47;101398.53;144992;590;6002;-82
2021/06/18 07:41:16;;;;;;;4.12;3.30;;;;;;;26.84;51.86;101398.31;144992;592;6002;-86
2021/06/18 07:43:42;;;;;;;4.70;3.37;;;;;;;26.92;50.20;101398.97;144992;601;6002;-86
2021/06/18 07:46:12;;;;;;;5.07;3.62;;;;;;;26.97;50.87;101396.19;144992;812;6002;-84
2021/06/18 07:48:39;;;;;;;4.25;3.45;;;;;;;27.01;51.67;101402.31;144992;662;6002;-84
2021/06/18 07:51:07;;;;;;;4.90;2.90;;;;;;;27.07;51.97;101400.31;144992;570;6002;-85
2021/06/18 07:53:33;;;;;;;3.70;3.12;;;;;;;27.17;51.56;101400.06;144992;909;6002;-83
2021/06/18 07:56:00;;;;;;;7.50;4.55;;;;;;;27.22;50.91;101396.37;144992;675;6002;-83
2021/06/18 07:58:30;;;;;;;5.45;3.40;;;;;;;27.27;51.08;101390.91;144992;635;6002;-85
2021/06/18 08:00:56;;;;;;;7.32;5.20;;;;;;;27.27;48.66;101377.59;144992;817;6002;-86
2021/06/18 08:03:23;;;;;;;8.18;5.40;;;;;;;27.11;50.71;101383.34;144992;565;6003;-83
2021/06/18 08:05:49;;;;;;;4.57;3.30;;;;;;;27.21;50.86;101380.41;144992;570;6002;-86
2021/06/18 08:08:16;;;;;;;5.57;3.65;;;;;;;27.27;50.74;101378.44;144992;569;6002;-83
2021/06/18 08:10:42;;;;;;;6.43;3.65;;;;;;;27.37;50.95;101379.06;144991;880;6003;-83
2021/06/18 08:13:09;;;;;;;5.78;3.70;;;;;;;27.48;50.85;101384.94;144992;843;6002;-82
2021/06/18 08:15:35;;;;;;;5.97;3.62;;;;;;;27.59;50.99;101384.62;144992;652;6002;-83
2021/06/18 08:18:02;;;;;;;4.55;3.33;;;;;;;27.62;49.66;101376.53;144992;777;6002;-84
2021/06/18 08:20:33;;;;;;;4.93;3.60;;;;;;;27.70;50.54;101378.97;144992;591;6002;-84
2021/06/18 08:23:00;;;;;;;5.45;3.47;;;;;;;27.83;50.28;101366.97;144992;587;6002;-85
2021/06/18 08:25:29;;;;;;;5.70;3.40;;;;;;;27.75;48.11;101371.69;144992;832;6002;-85
2021/06/18 08:27:56;;;;;;;6.53;3.55;;;;;;;27.85;49.97;101373.16;144992;570;6002;-83
2021/06/18 08:30:24;;;;;;;5.60;2.87;;;;;;;27.92;49.44;101368.47;144992;569;6002;-84
2021/06/18 08:32:52;;;;;;;4.40;3.40;;;;;;;27.71;47.99;101355.81;144992;909;6002;-84
2021/06/18 08:35:20;;;;;;;3.40;3.10;;;;;;;27.74;49.11;101361.06;144992;577;6002;-83
2021/06/18 08:37:47;;;;;;;5.82;3.22;;;;;;;27.86;48.41;101360.69;144992;589;6002;-83
2021/06/18 08:40:15;;;;;;;6.07;3.08;;;;;;;27.81;47.70;101358.16;144992;565;6002;-81
2021/06/18 08:42:42;;;;;;;4.78;3.47;;;;;;;27.67;45.49;101347.06;144992;559;6002;-85
2021/06/18 08:45:10;;;;;;;6.07;4.55;;;;;;;27.74;47.95;101350.41;144992;583;6002;-86
2021/06/18 08:47:38;;;;;;;6.43;3.90;;;;;;;27.46;49.03;101351.28;144992;626;6002;-84
2021/06/18 08:50:05;;;;;;;6.57;4.37;;;;;;;27.38;51.25;101353.28;144992;723;6002;-85
2021/06/18 08:52:32;;;;;;;6.57;5.25;;;;;;;27.17;52.46;101344.09;144992;825;6002;-84
2021/06/18 08:54:59;;;;;;;8.07;5.55;;;;;;;27.04;54.24;101344.47;144992;635;6002;-83
2021/06/18 08:57:26;;;;;;;6.68;5.37;;;;;;;27.22;52.03;101343.06;144992;575;6002;-83
2021/06/18 08:59:53;;;;;;;7.55;4.82;;;;;;;27.01;53.10;101338.34;144992;622;6002;-82
2021/06/18 09:02:24;;;;;;;7.43;5.05;;;;;;;26.98;52.78;101339.34;144992;827;6011;-81
2021/06/18 09:05:21;;;;;;;8.85;5.20;;;;;;;26.77;54.55;101340.81;144992;909;6002;-87
2021/06/18 09:08:07;;;;;;;7.47;5.62;;;;;;;26.89;54.67;101334.28;144992;907;6004;-81
2021/06/18 09:10:41;;;;;;;7.28;5.70;;;;;;;26.86;54.15;101334.34;144992;910;6002;-81
2021/06/18 09:13:31;;;;;;;7.12;5.68;;;;;;;26.81;54.28;101331.81;144992;630;6002;-80
2021/06/18 09:15:59;;;;;;;6.97;6.28;;;;;;;26.88;54.38;101329.84;144992;568;6004;-82
2021/06/18 09:18:45;;;;;;;6.57;5.82;;;;;;;26.83;54.72;101331.78;144992;855;6004;-82
2021/06/18 09:21:22;;;;;;;10.07;5.97;;;;;;;26.61;55.63;101332.34;144992;591;6002;-82
2021/06/18 09:23:54;;;;;;;9.23;5.70;;;;;;;26.53;55.52;101331.69;144992;908;6004;-80
2021/06/18 09:26:38;;;;;;;7.32;6.03;;;;;;;26.43;55.29;101331.91;144992;830;6004;-80
2021/06/18 09:29:22;;;;;;;8.13;6.25;;;;;;;26.14;56.54;101323.84;144992;800;6004;-79
2021/06/18 09:31:52;;;;;;;6.78;6.15;;;;;;;25.94;58.12;101329.63;144992;813;6003;-81
2021/06/18 09:34:48;;;;;;;7.07;6.40;;;;;;;25.95;57.33;101324.25;144992;586;6002;-80
2021/06/18 09:37:56;;;;;;;6.93;6.20;;;;;;;26.08;56.37;101318.69;144992;862;6002;-82
2021/06/18 09:40:24;;;;;;;9.70;5.87;;;;;;;25.88;57.80;101325.31;144992;880;6004;-82
2021/06/18 09:42:57;;;;;;;11.12;6.40;;;;;;;25.73;58.05;101323.91;144992;579;6004;-81
2021/06/18 09:45:37;;;;;;;7.00;6.00;;;;;;;25.96;56.17;101312.72;144992;566;6004;-83
2021/06/18 09:48:25;;;;;;;8.63;6.22;;;;;;;26.05;55.69;101304.53;144992;571;6004;-78
2021/06/18 09:51:02;;;;;;;7.50;6.68;;;;;;;25.95;56.84;101304.78;144993;595;6002;-81
2021/06/18 09:53:31;;;;;;;8.75;6.03;;;;;;;25.94;56.82;101311.87;144993;572;6002;-80
2021/06/18 09:56:09;;;;;;;6.93;6.28;;;;;;;26.10;56.14;101303.53;144993;569;6002;-81
2021/06/18 09:58:41;;;;;;;8.15;6.78;;;;;;;26.20;56.05;101295.28;144993;634;6002;-83
2021/06/18 10:01:19;;;;;;;5.95;5.45;;;;;;;26.29;54.70;101287.97;144993;582;6002;-84
2021/06/18 10:04:11;;;;;;;8.75;5.70;;;;;;;26.04;55.27;101289.50;144993;573;6002;-84
2021/06/18 10:06:40;;;;;;;7.12;5.93;;;;;;;26.18;54.50;101285.59;144993;593;6002;-86
2021/06/18 10:09:12;;;;;;;6.93;5.40;;;;;;;26.08;54.44;101282.28;144993;566;6002;-83
2021/06/18 10:11:42;;;;;;;7.28;6.28;;;;;;;26.05;55.07;101285.91;144993;606;6002;-82
2021/06/18 10:14:10;;;;;;;9.80;6.12;;;;;;;25.86;55.89;101274.81;144993;822;6002;-80
2021/06/18 10:16:38;;;;;;;8.60;6.00;;;;;;;25.99;55.27;101270.09;144993;585;6002;-80
2021/06/18 10:19:06;;;;;;;6.80;5.80;;;;;;;25.96;56.37;101275.50;144993;581;6002;-78
2021/06/18 10:21:57;;;;;;;9.77;6.72;;;;;;;26.02;55.46;101262.03;144992;578;6002;-81
2021/06/18 10:24:37;;;;;;;7.28;5.85;;;;;;;26.17;54.95;101259.88;144992;605;6000;-80
2021/06/18 10:27:06;;;;;;;5.40;4.80;;;;;;;26.32;52.66;101264.78;144992;835;6000;-81
2021/06/18 10:29:37;;;;;;;3.90;3.47;;;;;;;26.49;52.43;101256.34;144992;567;6000;-81
2021/06/18 10:32:32;;;;;;;4.20;3.80;;;;;;;26.52;48.00;101248.28;144991;569;6004;-80
2021/06/18 10:35:03;;;;;;;3.58;2.92;;;;;;;26.71;47.49;101248.66;144992;741;6000;-80
2021/06/18 10:37:32;;;;;;;4.70;2.85;;;;;;;26.94;49.37;101252.44;144993;571;6000;-82
2021/06/18 10:40:10;;;;;;;7.57;2.75;;;;;;;27.08;46.79;101249.34;144993;649;6002;-80
2021/06/18 10:42:37;;;;;;;5.05;2.90;;;;;;;27.13;47.27;101242.94;144993;590;6002;-83
2021/06/18 10:45:04;;;;;;;3.35;2.78;;;;;;;27.20;45.70;101226.75;144993;820;6002;-83
2021/06/18 10:47:43;;;;;;;4.82;2.70;;;;;;;27.37;47.30;101235.12;144993;567;6002;-80
2021/06/18 10:50:12;;;;;;;4.20;3.30;;;;;;;27.41;46.35;101228.78;144993;846;6002;-81
2021/06/18 10:52:44;;;;;;;3.35;3.03;;;;;;;27.60;46.47;101239.72;144993;565;6002;-82
2021/06/18 10:55:13;;;;;;;6.35;3.42;;;;;;;27.63;47.21;101225.41;144993;677;6002;-84
2021/06/18 10:57:53;;;;;;;3.03;2.78;;;;;;;27.67;46.89;101229.72;144993;911;6002;-80
2021/06/18 11:00:28;;;;;;;3.58;3.28;;;;;;;27.69;47.31;101226.06;144993;590;6002;-83
2021/06/18 11:02:55;;;;;;;5.03;3.40;;;;;;;27.65;48.83;101226.25;144993;595;6002;-83
2021/06/18 11:05:43;;;;;;;4.22;3.42;;;;;;;27.61;48.65;101221.91;144993;571;6002;-80
2021/06/18 11:08:21;;;;;;;4.37;3.72;;;;;;;27.57;49.50;101213.16;144993;580;6005;-79
2021/06/18 11:10:49;;;;;;;5.15;3.30;;;;;;;27.49;49.58;101220.53;144992;671;6002;-81
2021/06/18 11:13:18;;;;;;;3.53;3.03;;;;;;;27.57;48.53;101222.94;144993;913;6002;-83
2021/06/18 11:15:47;;;;;;;3.75;3.40;;;;;;;27.63;47.82;101198.72;144992;914;6002;-81
2021/06/18 11:18:17;;;;;;;4.18;3.28;;;;;;;27.72;48.37;101202.87;144993;656;6002;-80
2021/06/18 11:20:52;;;;;;;3.10;2.80;;;;;;;27.80;47.52;101201.69;144993;573;6002;-82
2021/06/18 11:23:31;;;;;;;4.97;2.97;;;;;;;27.82;44.68;101193.63;144993;628;6003;-84
2021/06/18 11:26:06;;;;;;;4.55;2.90;;;;;;;27.99;46.58;101193.94;144993;572;6002;-82
2021/06/18 11:28:36;;;;;;;2.87;2.65;;;;;;;28.09;46.47;101189.16;144993;588;6002;-80
2021/06/18 11:31:17;;;;;;;4.62;3.42;;;;;;;28.16;46.34;101190.69;144994;575;5003;-83
2021/06/18 11:33:46;;;;;;;5.68;4.55;;;;;;;27.69;55.59;101191.38;144994;569;5002;-81
2021/06/18 11:36:41;;;;;;;4.18;3.45;;;;;;;27.71;51.15;101190.47;144994;589;5002;-82
2021/06/18 11:39:17;;;;;;;4.95;4.05;;;;;;;27.52;53.78;101201.75;144994;669;5004;-84
2021/06/18 11:41:48;;;;;;;4.50;4.10;;;;;;;27.36;52.75;101195.19;144994;569;5002;-83
2021/06/18 11:44:20;;;;;;;5.53;4.18;;;;;;;27.35;52.41;101194.34;144994;681;5002;-83
2021/06/18 11:46:51;;;;;;;6.35;4.30;;;;;;;27.23;54.24;101192.87;144994;595;5002;-83
2021/06/18 11:49:24;;;;;;;5.10;4.35;;;;;;;27.25;55.32;101196.41;144994;911;5002;-82
2021/06/18 11:51:58;;;;;;;5.95;4.78;;;;;;;27.29;54.68;101189.16;144994;590;5002;-83
2021/06/18 11:54:29;;;;;;;;;;;;;;;27.37;54.12;101184.47;144998;912;5002;-81
2021/06/18 11:57:08;;;;;;;4.62;3.50;;;;;;;27.32;53.62;101181.97;144998;585;5002;-81